Cradley Heath, United Kingdom
Current Conditions -  °F | °C
As of 7:20 AM on Saturday 20 Dec 2014 (Local Time) from EGBB Reporting Station
Scattered Clouds Scattered Clouds  
Wind Chill: 40°   Ceiling: Unl
Heat Index: 45°   Visibility: 6mi
Dew Point: 36°   Wind: 8mph
Humidity: 71%   Direction: 270°W
Pressure: 30.18"   Gusts: NA
Location:  52.47°N, 2.09°W
Report Text: EGBB 200720Z 27007KT 9999 SCT034 07/02 Q1022
Loading
Personal Weather Stations






























Interactive Weather Map New forecast layout! Learn more

10-Day Weather Forecast

Advertisements
Track Severe Weather on mobile